Time;durP1;ratioP1;P1;durP2;ratioP2;P2;SDS_P1;SDS_P2;PMS_P1;PMS_P2;Temp;Humidity;BMP_temperature;BMP_pressure;BME280_temperature;BME280_humidity;BME280_pressure;Samples;Min_cycle;Max_cycle;Signal;HPM_P1;HPM_P2
2021/01/31 00:00:57;;;;;;;7.60;6.05;;;6.30;57.00;;;;;;2115260;27;20028;-60
2021/01/31 00:02:18;;;;;;;6.97;6.28;;;6.30;57.10;;;;;;2117527;27;20023;-59
2021/01/31 00:03:39;;;;;;;7.22;6.38;;;6.30;57.10;;;;;;2113707;28;20047;-60
2021/01/31 00:04:59;;;;;;;7.15;6.13;;;6.30;57.10;;;;;;2119558;27;20035;-59
2021/01/31 00:06:20;;;;;;;7.93;6.65;;;6.30;57.10;;;;;;2116805;27;20035;-60
2021/01/31 00:07:42;;;;;;;6.82;6.13;;;6.30;57.10;;;;;;2123492;27;20050;-59
2021/01/31 00:09:03;;;;;;;6.97;6.28;;;6.20;57.10;;;;;;2121794;27;20035;-59
2021/01/31 00:10:29;;;;;;;7.38;6.50;;;6.30;57.30;;;;;;2122077;27;20119;-59
2021/01/31 00:11:50;;;;;;;7.00;6.30;;;6.20;57.80;;;;;;2120926;27;20042;-60
2021/01/31 00:13:12;;;;;;;6.93;6.28;;;6.20;57.30;;;;;;2119828;27;20181;-60
2021/01/31 00:14:33;;;;;;;7.85;6.30;;;6.20;57.30;;;;;;2120281;27;20102;-60
2021/01/31 00:15:54;;;;;;;7.45;5.97;;;6.20;57.40;;;;;;2122108;27;20038;-59
2021/01/31 00:17:15;;;;;;;7.25;6.55;;;6.20;57.50;;;;;;2118539;27;20084;-59
2021/01/31 00:18:36;;;;;;;7.85;6.72;;;6.20;57.40;;;;;;2121289;27;20023;-60
2021/01/31 00:19:57;;;;;;;9.20;7.10;;;6.20;57.40;;;;;;2122853;27;20067;-60
2021/01/31 00:21:18;;;;;;;8.00;7.20;;;6.20;57.40;;;;;;2120264;27;20062;-61
2021/01/31 00:22:39;;;;;;;9.27;7.88;;;6.20;57.40;;;;;;2121784;27;20614;-59
2021/01/31 00:24:00;;;;;;;10.88;9.30;;;6.20;57.50;;;;;;2118014;27;20027;-61
2021/01/31 00:25:21;;;;;;;12.85;10.35;;;6.10;57.50;;;;;;2116675;27;20070;-59
2021/01/31 00:26:42;;;;;;;14.52;12.35;;;6.20;57.50;;;;;;2122182;27;20031;-60
2021/01/31 00:28:03;;;;;;;16.38;13.15;;;6.10;57.50;;;;;;2121585;27;20426;-59
2021/01/31 00:29:24;;;;;;;18.13;15.68;;;6.10;57.50;;;;;;2117621;27;20090;-60
2021/01/31 00:30:46;;;;;;;20.38;16.40;;;6.10;57.50;;;;;;2124212;27;20042;-60
2021/01/31 00:32:07;;;;;;;23.75;17.20;;;6.10;57.50;;;;;;2116281;27;20058;-60
2021/01/31 00:33:31;;;;;;;25.88;18.48;;;6.10;57.50;;;;;;2122014;27;20031;-60
2021/01/31 00:34:53;;;;;;;27.58;19.60;;;6.10;57.60;;;;;;2120991;27;20030;-60
2021/01/31 00:36:14;;;;;;;27.27;18.85;;;6.10;57.70;;;;;;2117213;27;20039;-60
2021/01/31 00:37:35;;;;;;;26.33;17.30;;;6.10;57.70;;;;;;2123089;27;20473;-60
2021/01/31 00:38:56;;;;;;;25.48;15.77;;;6.10;57.60;;;;;;2121911;27;20110;-60
2021/01/31 00:40:17;;;;;;;23.85;15.02;;;6.10;57.60;;;;;;2118351;27;20023;-60
2021/01/31 00:41:39;;;;;;;25.88;14.38;;;6.10;57.70;;;;;;2125801;27;20038;-60
2021/01/31 00:43:00;;;;;;;18.17;11.52;;;6.10;57.60;;;;;;2122948;27;20062;-59
2021/01/31 00:44:21;;;;;;;16.85;10.75;;;6.10;57.60;;;;;;2119315;27;20091;-59
2021/01/31 00:45:43;;;;;;;12.15;8.95;;;6.10;57.70;;;;;;2130638;27;20039;-61
2021/01/31 00:47:04;;;;;;;9.88;8.00;;;6.10;57.80;;;;;;2121670;27;20343;-60
2021/01/31 00:48:25;;;;;;;12.52;8.32;;;6.10;57.80;;;;;;2118049;27;20034;-59
2021/01/31 00:49:47;;;;;;;8.35;7.35;;;6.00;57.80;;;;;;2121232;27;20830;-60
2021/01/31 00:51:08;;;;;;;7.63;6.50;;;6.10;57.80;;;;;;2115145;28;20043;-59
2021/01/31 00:52:30;;;;;;;8.18;7.15;;;6.00;57.80;;;;;;2122835;27;20058;-59
2021/01/31 00:53:50;;;;;;;7.97;7.03;;;6.00;57.90;;;;;;2114970;28;20061;-59
2021/01/31 00:55:13;;;;;;;7.82;7.00;;;6.10;57.90;;;;;;2119467;27;20023;-60
2021/01/31 00:56:34;;;;;;;7.43;6.65;;;6.00;57.80;;;;;;2120732;27;20458;-59
2021/01/31 00:57:55;;;;;;;9.07;7.05;;;6.10;57.90;;;;;;2121810;27;20015;-59
2021/01/31 00:59:15;;;;;;;7.50;6.70;;;6.00;57.80;;;;;;2115400;27;20039;-59
2021/01/31 01:00:39;;;;;;;7.10;6.40;;;6.00;57.80;;;;;;2117712;28;20034;-60
2021/01/31 01:02:04;;;;;;;7.57;6.75;;;6.00;57.80;;;;;;2122355;27;20067;-60
2021/01/31 01:03:25;;;;;;;7.47;6.65;;;6.00;58.30;;;;;;2120392;27;20044;-60
2021/01/31 01:04:47;;;;;;;7.65;6.60;;;6.00;57.90;;;;;;2121357;28;20019;-60
2021/01/31 01:06:09;;;;;;;7.30;6.60;;;6.00;57.90;;;;;;2123307;28;20028;-60
2021/01/31 01:07:30;;;;;;;7.95;7.15;;;6.00;57.90;;;;;;2121017;28;20694;-60
2021/01/31 01:08:51;;;;;;;8.32;7.15;;;6.00;57.80;;;;;;2114205;27;20019;-60
2021/01/31 01:10:14;;;;;;;8.40;7.10;;;6.00;57.90;;;;;;2115751;28;20455;-60
2021/01/31 01:11:36;;;;;;;7.53;6.70;;;6.00;57.90;;;;;;2111735;28;20101;-60
2021/01/31 01:12:58;;;;;;;7.50;6.70;;;6.00;57.90;;;;;;2119808;28;20075;-59
2021/01/31 01:14:19;;;;;;;7.60;6.80;;;6.00;58.00;;;;;;2125820;27;20027;-59
2021/01/31 01:15:40;;;;;;;8.45;7.03;;;6.00;58.10;;;;;;2121110;28;20405;-59
2021/01/31 01:17:02;;;;;;;8.75;7.57;;;6.00;58.00;;;;;;2113612;28;20069;-59
2021/01/31 01:18:23;;;;;;;6.97;6.28;;;6.00;58.00;;;;;;2113276;28;20093;-60
2021/01/31 01:19:44;;;;;;;7.90;6.97;;;6.00;58.00;;;;;;2124838;27;20011;-59
2021/01/31 01:21:05;;;;;;;8.05;7.25;;;6.00;58.00;;;;;;2114850;28;20078;-59
2021/01/31 01:22:26;;;;;;;8.70;7.45;;;6.00;57.90;;;;;;2122538;28;20024;-59
2021/01/31 01:23:47;;;;;;;7.88;6.80;;;6.00;57.90;;;;;;2121923;27;20031;-60
2021/01/31 01:25:12;;;;;;;8.70;7.22;;;6.00;58.00;;;;;;2115060;28;20023;-60
2021/01/31 01:26:32;;;;;;;7.60;6.70;;;6.00;58.00;;;;;;2120314;27;20054;-60
2021/01/31 01:27:54;;;;;;;7.43;6.53;;;6.00;58.00;;;;;;2123232;27;20070;-60
2021/01/31 01:29:15;;;;;;;7.53;6.30;;;6.00;58.00;;;;;;2117721;27;20023;-61
2021/01/31 01:30:36;;;;;;;8.02;7.20;;;6.00;58.00;;;;;;2121446;27;20373;-61
2021/01/31 01:31:57;;;;;;;8.38;6.90;;;5.90;57.90;;;;;;2123923;27;20039;-61
2021/01/31 01:33:17;;;;;;;8.35;6.40;;;5.90;57.90;;;;;;2117039;27;20061;-60
2021/01/31 01:34:38;;;;;;;8.40;6.65;;;6.00;57.90;;;;;;2122949;27;20338;-60
2021/01/31 01:35:59;;;;;;;6.60;5.90;;;5.90;57.90;;;;;;2125036;27;20031;-60
2021/01/31 01:37:20;;;;;;;7.63;6.90;;;5.90;58.40;;;;;;2122432;27;20063;-61
2021/01/31 01:38:41;;;;;;;8.93;6.93;;;5.90;57.90;;;;;;2124339;27;20016;-61
2021/01/31 01:40:08;;;;;;;7.47;6.45;;;5.90;57.90;;;;;;2115583;27;20023;-61
2021/01/31 01:41:37;;;;;;;8.25;7.35;;;5.90;57.90;;;;;;2123280;27;20354;-59
2021/01/31 01:42:58;;;;;;;7.65;6.85;;;5.90;57.90;;;;;;2124529;27;20063;-59
2021/01/31 01:44:19;;;;;;;7.18;6.45;;;5.90;57.90;;;;;;2123040;27;20031;-59
2021/01/31 01:45:40;;;;;;;6.93;6.20;;;5.90;57.90;;;;;;2121511;27;20026;-60
2021/01/31 01:47:03;;;;;;;8.45;7.10;;;5.80;57.80;;;;;;2122778;27;20466;-59
2021/01/31 01:48:24;;;;;;;8.18;6.85;;;5.80;57.90;;;;;;2118597;27;20462;-60
2021/01/31 01:49:48;;;;;;;7.55;6.70;;;5.80;57.90;;;;;;2129948;27;20037;-60
2021/01/31 01:51:09;;;;;;;7.80;7.00;;;5.80;57.90;;;;;;2118855;27;20068;-59
2021/01/31 01:52:35;;;;;;;7.10;6.38;;;5.80;57.90;;;;;;2118669;27;20107;-59
2021/01/31 01:53:58;;;;;;;7.57;6.72;;;5.80;57.90;;;;;;2121249;27;20035;-59
2021/01/31 01:55:21;;;;;;;7.15;6.07;;;5.80;58.50;;;;;;2117882;27;20565;-59
2021/01/31 01:56:47;;;;;;;7.40;6.65;;;5.70;57.90;;;;;;2121888;27;20481;-60
2021/01/31 01:58:14;;;;;;;9.45;6.85;;;5.70;57.90;;;;;;2117340;27;20035;-60
2021/01/31 01:59:37;;;;;;;7.10;6.28;;;5.70;57.90;;;;;;2122406;27;20055;-59
2021/01/31 02:01:00;;;;;;;7.68;6.68;;;5.70;57.80;;;;;;2122955;27;20110;-59
2021/01/31 02:02:29;;;;;;;7.30;6.60;;;5.70;57.90;;;;;;2117338;27;20023;-59
2021/01/31 02:03:55;;;;;;;7.15;6.45;;;5.70;57.90;;;;;;2122776;27;20070;-59
2021/01/31 02:05:16;;;;;;;8.05;6.63;;;5.70;57.90;;;;;;2117678;27;20028;-59
2021/01/31 02:06:37;;;;;;;8.30;7.22;;;5.70;57.90;;;;;;2123130;27;20045;-59
2021/01/31 02:07:58;;;;;;;8.02;7.10;;;5.70;58.00;;;;;;2122904;27;20466;-59
2021/01/31 02:09:20;;;;;;;7.80;7.00;;;5.60;58.00;;;;;;2125336;27;20939;-59
2021/01/31 02:10:40;;;;;;;7.88;6.90;;;5.60;58.00;;;;;;2121822;27;20047;-59
2021/01/31 02:12:04;;;;;;;7.55;6.75;;;5.60;58.00;;;;;;2115866;28;20053;-59
2021/01/31 02:13:26;;;;;;;7.68;6.88;;;5.60;58.00;;;;;;2123643;27;20031;-59
2021/01/31 02:14:49;;;;;;;7.18;6.47;;;5.60;58.00;;;;;;2123538;27;20026;-60
2021/01/31 02:16:34;;;;;;;7.80;6.90;;;5.50;58.00;;;;;;2116441;27;20043;-60
2021/01/31 02:18:14;;;;;;;6.97;6.28;;;5.60;58.00;;;;;;2122172;27;20051;-61
2021/01/31 02:19:53;;;;;;;7.18;6.47;;;5.50;58.00;;;;;;2118006;27;20023;-61
2021/01/31 02:21:36;;;;;;;7.28;6.57;;;5.50;57.90;;;;;;2119678;27;20059;-60
2021/01/31 02:23:25;;;;;;;6.82;5.93;;;5.50;58.00;;;;;;2116262;27;20042;-60
2021/01/31 02:25:16;;;;;;;6.93;6.07;;;5.50;58.00;;;;;;2121851;27;20046;-60
2021/01/31 02:27:11;;;;;;;6.95;6.25;;;5.50;58.00;;;;;;2119699;27;20031;-60
2021/01/31 02:28:42;;;;;;;6.55;5.85;;;5.50;58.00;;;;;;2122781;27;20031;-60
2021/01/31 02:30:21;;;;;;;7.55;6.75;;;5.50;57.90;;;;;;2127986;27;20121;-60
2021/01/31 02:31:56;;;;;;;7.63;6.80;;;5.40;58.10;;;;;;2117631;27;20540;-60
2021/01/31 02:33:29;;;;;;;6.43;5.82;;;5.40;58.00;;;;;;2116753;27;20466;-60
2021/01/31 02:35:12;;;;;;;8.80;7.28;;;5.30;58.00;;;;;;2121772;27;20077;-60
2021/01/31 02:36:50;;;;;;;8.30;6.63;;;5.30;58.10;;;;;;2119167;27;20553;-60
2021/01/31 02:38:23;;;;;;;7.43;6.70;;;5.30;58.10;;;;;;2122351;27;20065;-61
2021/01/31 02:39:59;;;;;;;6.82;6.22;;;5.30;58.10;;;;;;2120450;27;20019;-60
2021/01/31 02:41:37;;;;;;;7.20;5.93;;;5.30;58.20;;;;;;2121064;27;20084;-60
2021/01/31 02:43:15;;;;;;;7.60;6.65;;;5.30;58.20;;;;;;2126813;27;20386;-61
2021/01/31 02:44:39;;;;;;;8.45;6.60;;;5.20;58.20;;;;;;2119028;27;20035;-60
2021/01/31 02:46:24;;;;;;;6.82;6.13;;;5.20;58.20;;;;;;2123696;27;20505;-60
2021/01/31 02:47:55;;;;;;;6.75;6.15;;;5.20;58.30;;;;;;2123236;27;20477;-61
2021/01/31 02:49:23;;;;;;;7.93;7.18;;;5.20;58.30;;;;;;2117418;27;20051;-60
2021/01/31 02:51:10;;;;;;;7.43;6.72;;;5.20;58.40;;;;;;2123346;27;20027;-60
2021/01/31 02:52:44;;;;;;;7.30;6.57;;;5.20;58.30;;;;;;2119074;27;20059;-60
2021/01/31 02:54:12;;;;;;;7.28;6.57;;;5.10;58.30;;;;;;2124164;27;20056;-60
2021/01/31 02:55:45;;;;;;;7.70;6.40;;;5.10;58.30;;;;;;2123465;27;20023;-61
2021/01/31 02:57:13;;;;;;;7.50;6.70;;;5.10;58.30;;;;;;2116094;27;20036;-61
2021/01/31 02:58:45;;;;;;;7.97;6.75;;;5.10;58.30;;;;;;2121931;27;20019;-60
2021/01/31 03:00:18;;;;;;;6.80;6.10;;;5.10;58.40;;;;;;2126250;27;20042;-60
2021/01/31 03:01:47;;;;;;;8.18;7.05;;;5.10;58.40;;;;;;2119901;27;20035;-61
2021/01/31 03:03:17;;;;;;;7.63;6.88;;;5.10;58.40;;;;;;2120713;27;20054;-60
2021/01/31 03:05:06;;;;;;;8.88;7.30;;;5.10;58.50;;;;;;2121410;27;20110;-61
2021/01/31 03:06:31;;;;;;;7.35;6.57;;;5.00;58.60;;;;;;2121566;27;20057;-61
2021/01/31 03:08:26;;;;;;;7.70;6.60;;;5.00;58.50;;;;;;2123001;27;20040;-60
2021/01/31 03:10:11;;;;;;;7.82;6.90;;;5.00;58.50;;;;;;2121039;27;20031;-61
2021/01/31 03:11:45;;;;;;;6.57;5.97;;;5.00;58.60;;;;;;2116331;27;20110;-61
2021/01/31 03:13:15;;;;;;;8.45;6.55;;;5.00;58.60;;;;;;2118958;27;20035;-60
2021/01/31 03:14:42;;;;;;;7.47;6.75;;;5.00;58.60;;;;;;2123233;27;20039;-61
2021/01/31 03:16:13;;;;;;;7.72;6.63;;;4.90;58.50;;;;;;2119844;27;20031;-61
2021/01/31 03:17:43;;;;;;;7.30;6.57;;;4.90;58.50;;;;;;2120032;27;20076;-61
2021/01/31 03:19:12;;;;;;;7.43;6.72;;;4.90;58.60;;;;;;2115383;28;20028;-61
2021/01/31 03:20:40;;;;;;;7.93;7.13;;;4.90;58.60;;;;;;2123358;27;20102;-60
2021/01/31 03:22:06;;;;;;;6.97;6.25;;;4.90;58.60;;;;;;2115860;28;20089;-60
2021/01/31 03:23:46;;;;;;;8.10;7.00;;;4.90;58.60;;;;;;2118175;27;20106;-61
2021/01/31 03:25:35;;;;;;;7.93;7.15;;;4.90;58.80;;;;;;2130234;27;20027;-60
2021/01/31 03:27:04;;;;;;;7.50;6.07;;;4.90;58.80;;;;;;2122883;27;20485;-61
2021/01/31 03:28:25;;;;;;;7.15;6.38;;;4.80;58.80;;;;;;2122564;27;20029;-61
2021/01/31 03:29:46;;;;;;;7.75;6.97;;;4.80;58.80;;;;;;2127083;27;20023;-61
2021/01/31 03:31:09;;;;;;;7.97;6.95;;;4.80;58.70;;;;;;2115055;27;20024;-61
2021/01/31 03:32:36;;;;;;;8.38;6.88;;;4.80;58.80;;;;;;2123507;27;20034;-61
2021/01/31 03:34:08;;;;;;;7.93;7.13;;;4.80;58.80;;;;;;2122574;27;20041;-60
2021/01/31 03:35:39;;;;;;;7.90;6.85;;;4.80;58.90;;;;;;2118356;27;20075;-61
2021/01/31 03:37:04;;;;;;;7.85;7.07;;;4.80;58.90;;;;;;2122694;27;20061;-60
2021/01/31 03:38:24;;;;;;;7.82;6.97;;;4.80;58.90;;;;;;2117768;27;20019;-60
2021/01/31 03:39:48;;;;;;;8.27;7.28;;;4.80;59.00;;;;;;2121933;27;20063;-60
2021/01/31 03:41:16;;;;;;;7.47;6.70;;;4.80;58.90;;;;;;2118116;27;20102;-59
2021/01/31 03:42:37;;;;;;;8.13;7.15;;;4.70;59.00;;;;;;2123152;27;20068;-60
2021/01/31 03:43:58;;;;;;;7.65;6.85;;;4.70;59.00;;;;;;2123550;27;20134;-60
2021/01/31 03:45:27;;;;;;;7.90;7.10;;;4.70;59.00;;;;;;2116709;27;20115;-60
2021/01/31 03:47:04;;;;;;;8.25;7.35;;;4.70;59.00;;;;;;2119880;27;20029;-60
2021/01/31 03:48:28;;;;;;;7.70;6.93;;;4.70;59.20;;;;;;2126315;27;20027;-60
2021/01/31 03:49:57;;;;;;;7.65;6.82;;;4.70;59.10;;;;;;2119109;27;20058;-61
2021/01/31 03:51:18;;;;;;;7.70;6.88;;;4.70;59.20;;;;;;2116504;27;20042;-61
2021/01/31 03:52:40;;;;;;;7.35;6.55;;;4.70;59.10;;;;;;2118688;27;20126;-60
2021/01/31 03:54:01;;;;;;;8.18;7.00;;;4.70;59.10;;;;;;2116429;27;20058;-59
2021/01/31 03:55:23;;;;;;;9.45;7.53;;;4.70;59.10;;;;;;2117218;27;20036;-61
2021/01/31 03:56:50;;;;;;;7.90;6.80;;;4.70;59.20;;;;;;2122122;27;20064;-61
2021/01/31 03:58:15;;;;;;;8.15;7.32;;;4.60;59.10;;;;;;2115804;28;20107;-61
2021/01/31 03:59:40;;;;;;;8.68;7.28;;;4.60;59.10;;;;;;2123760;27;20034;-60
2021/01/31 04:01:04;;;;;;;7.75;6.95;;;4.60;59.20;;;;;;2122646;27;20030;-61
2021/01/31 04:02:37;;;;;;;8.68;7.78;;;4.60;59.20;;;;;;2118532;27;20019;-61
2021/01/31 04:04:15;;;;;;;7.93;6.90;;;4.60;59.20;;;;;;2121885;27;20104;-61
2021/01/31 04:05:40;;;;;;;7.50;6.75;;;4.60;59.30;;;;;;2123662;27;20430;-59
2021/01/31 04:07:06;;;;;;;7.50;6.70;;;4.60;59.20;;;;;;2119870;27;20515;-61
2021/01/31 04:08:29;;;;;;;7.63;6.78;;;4.60;59.20;;;;;;2118840;27;20760;-59
2021/01/31 04:09:50;;;;;;;8.20;7.03;;;4.60;59.20;;;;;;2124649;27;20031;-60
2021/01/31 04:11:27;;;;;;;8.57;7.65;;;4.60;59.30;;;;;;2127348;27;20121;-60
2021/01/31 04:12:53;;;;;;;7.82;7.03;;;4.60;59.30;;;;;;2120138;27;20042;-60
2021/01/31 04:14:22;;;;;;;8.27;6.50;;;4.60;59.30;;;;;;2119814;27;20172;-60
2021/01/31 04:15:49;;;;;;;8.52;7.63;;;4.60;59.30;;;;;;2120550;27;20158;-60
2021/01/31 04:17:10;;;;;;;7.43;6.70;;;4.60;59.30;;;;;;2121855;27;20034;-59
2021/01/31 04:18:31;;;;;;;8.80;6.88;;;4.60;59.30;;;;;;2126134;27;20028;-61
2021/01/31 04:19:52;;;;;;;8.57;6.47;;;4.50;59.30;;;;;;2123874;27;20034;-61
2021/01/31 04:21:13;;;;;;;7.90;6.85;;;4.50;59.30;;;;;;2115977;27;20177;-61
2021/01/31 04:22:34;;;;;;;8.85;7.55;;;4.50;59.30;;;;;;2122031;27;20023;-61
2021/01/31 04:23:55;;;;;;;8.02;7.20;;;4.50;59.30;;;;;;2121160;27;20529;-61
2021/01/31 04:25:16;;;;;;;8.00;7.20;;;4.50;59.40;;;;;;2116368;27;20118;-61
2021/01/31 04:26:37;;;;;;;8.68;7.32;;;4.50;59.40;;;;;;2119584;27;20065;-61
2021/01/31 04:28:05;;;;;;;9.30;6.95;;;4.50;59.50;;;;;;2122082;27;20093;-61
2021/01/31 04:29:26;;;;;;;8.13;6.75;;;4.50;59.50;;;;;;2122271;27;20470;-61
2021/01/31 04:30:52;;;;;;;9.02;7.82;;;4.50;59.50;;;;;;2122463;27;20031;-61
2021/01/31 04:32:13;;;;;;;7.63;6.82;;;4.50;59.50;;;;;;2116822;27;20115;-61
2021/01/31 04:33:34;;;;;;;7.75;7.05;;;4.50;59.50;;;;;;2122017;27;20052;-61
2021/01/31 04:34:55;;;;;;;7.60;6.80;;;4.50;59.50;;;;;;2121215;27;20102;-61
2021/01/31 04:36:15;;;;;;;7.75;6.95;;;4.50;59.50;;;;;;2123550;27;20038;-61
2021/01/31 04:37:37;;;;;;;8.50;7.13;;;4.40;59.50;;;;;;2117140;27;20481;-61
2021/01/31 04:38:58;;;;;;;8.27;7.40;;;4.40;59.50;;;;;;2127934;27;20037;-61
2021/01/31 04:40:19;;;;;;;9.05;7.90;;;4.40;59.50;;;;;;2116914;27;20107;-61
2021/01/31 04:41:42;;;;;;;7.95;7.05;;;4.40;59.50;;;;;;2121240;27;20019;-61
2021/01/31 04:43:08;;;;;;;8.73;7.65;;;4.40;59.60;;;;;;2114337;28;20038;-61
2021/01/31 04:44:29;;;;;;;8.02;6.72;;;4.40;59.70;;;;;;2122607;27;20019;-61
2021/01/31 04:45:51;;;;;;;8.07;7.30;;;4.50;59.60;;;;;;2120475;27;20118;-61
2021/01/31 04:47:30;;;;;;;9.23;7.43;;;4.40;59.60;;;;;;2114514;27;20035;-61
2021/01/31 04:48:57;;;;;;;8.15;6.72;;;4.40;59.80;;;;;;2121341;27;20477;-61
2021/01/31 04:50:43;;;;;;;9.30;7.75;;;4.40;59.80;;;;;;2117625;28;20060;-61
2021/01/31 04:52:25;;;;;;;8.13;7.05;;;4.40;59.70;;;;;;2118506;27;20613;-59
2021/01/31 04:54:23;;;;;;;8.95;7.38;;;4.40;59.60;;;;;;2121059;27;20066;-60
2021/01/31 04:56:23;;;;;;;7.20;6.50;;;4.40;59.70;;;;;;2121385;27;20505;-61
2021/01/31 04:58:14;;;;;;;7.18;6.47;;;4.40;59.70;;;;;;2120276;27;20027;-60
2021/01/31 04:59:39;;;;;;;7.43;6.50;;;4.40;59.70;;;;;;2123699;27;20090;-59
2021/01/31 05:01:08;;;;;;;7.10;6.30;;;4.40;59.60;;;;;;2120634;27;20030;-60
2021/01/31 05:02:34;;;;;;;7.83;6.90;;;4.40;59.60;;;;;;2117310;27;20076;-62
2021/01/31 05:04:04;;;;;;;7.03;6.35;;;4.40;59.60;;;;;;2120041;27;20102;-62
2021/01/31 05:05:50;;;;;;;8.43;7.43;;;4.40;59.70;;;;;;2116783;28;20055;-61
2021/01/31 05:07:11;;;;;;;7.38;6.32;;;4.30;59.70;;;;;;2116457;28;20531;-61
2021/01/31 05:08:32;;;;;;;8.00;6.93;;;4.30;59.60;;;;;;2121882;28;20027;-62
2021/01/31 05:09:53;;;;;;;7.65;6.80;;;4.30;59.60;;;;;;2121601;28;20339;-61
2021/01/31 05:11:21;;;;;;;7.00;6.15;;;4.30;59.60;;;;;;2118141;28;20370;-61
2021/01/31 05:12:57;;;;;;;7.78;6.95;;;4.30;59.70;;;;;;2119721;28;20509;-61
2021/01/31 05:15:09;;;;;;;6.57;5.97;;;4.30;59.70;;;;;;2122319;27;20371;-59
2021/01/31 05:16:30;;;;;;;7.47;6.38;;;4.30;59.70;;;;;;2080940;28;20096;-60
2021/01/31 05:17:54;;;;;;;7.45;6.45;;;4.30;59.60;;;;;;2121256;28;20462;-59
2021/01/31 05:19:16;;;;;;;9.13;7.40;;;4.30;59.70;;;;;;2115989;28;20032;-61
2021/01/31 05:20:37;;;;;;;9.38;6.90;;;4.30;59.60;;;;;;2121852;28;20060;-60
2021/01/31 05:21:58;;;;;;;7.97;7.18;;;4.30;59.70;;;;;;2114176;28;20035;-61
2021/01/31 05:23:19;;;;;;;8.98;7.55;;;4.30;59.60;;;;;;2121169;28;20023;-61
2021/01/31 05:24:40;;;;;;;7.60;6.85;;;4.30;59.60;;;;;;2121785;28;20719;-61
2021/01/31 05:26:02;;;;;;;8.07;6.70;;;4.20;59.60;;;;;;2125924;27;20035;-61
2021/01/31 05:27:31;;;;;;;7.30;6.45;;;4.20;59.60;;;;;;2118878;28;20042;-61
2021/01/31 05:29:01;;;;;;;9.55;6.95;;;4.20;59.70;;;;;;2114302;28;20039;-61
2021/01/31 05:30:24;;;;;;;8.55;7.38;;;4.20;59.70;;;;;;2116132;28;20366;-61
2021/01/31 05:32:11;;;;;;;9.27;7.95;;;4.20;59.70;;;;;;2120823;28;20031;-60
2021/01/31 05:33:51;;;;;;;7.20;6.50;;;4.20;59.70;;;;;;2114449;28;20038;-61
2021/01/31 05:35:21;;;;;;;7.38;6.70;;;4.20;59.70;;;;;;2115133;28;20096;-61
2021/01/31 05:37:00;;;;;;;8.68;7.53;;;4.20;59.60;;;;;;2119790;28;20399;-61
2021/01/31 05:38:37;;;;;;;8.98;7.00;;;4.20;59.60;;;;;;2121801;27;20027;-60
2021/01/31 05:40:07;;;;;;;7.55;6.82;;;4.20;59.60;;;;;;2115050;28;20031;-60
2021/01/31 05:41:33;;;;;;;7.65;6.78;;;4.20;59.60;;;;;;2118951;28;20034;-61
2021/01/31 05:42:54;;;;;;;8.23;7.00;;;4.20;59.50;;;;;;2119635;28;20023;-61
2021/01/31 05:44:15;;;;;;;7.65;6.95;;;4.20;59.50;;;;;;2115637;28;20570;-61
2021/01/31 05:45:39;;;;;;;7.93;6.93;;;4.20;59.60;;;;;;2119610;28;20092;-61
2021/01/31 05:47:02;;;;;;;7.78;6.82;;;4.20;59.60;;;;;;2123331;28;20049;-61
2021/01/31 05:48:37;;;;;;;7.63;6.88;;;4.10;59.60;;;;;;2117026;28;20051;-61
2021/01/31 05:49:58;;;;;;;7.88;6.82;;;4.10;59.70;;;;;;2129655;27;20019;-60
2021/01/31 05:51:19;;;;;;;7.93;6.85;;;4.10;59.60;;;;;;2122623;28;20117;-61
2021/01/31 05:52:40;;;;;;;7.72;6.82;;;4.10;59.70;;;;;;2121100;28;20027;-61
2021/01/31 05:54:18;;;;;;;8.00;7.13;;;4.10;59.80;;;;;;2121914;28;20388;-61
2021/01/31 05:55:38;;;;;;;7.18;6.47;;;4.10;59.80;;;;;;2118067;28;20027;-61
2021/01/31 05:57:00;;;;;;;8.32;7.03;;;4.10;59.80;;;;;;2129101;27;20027;-61
2021/01/31 05:58:23;;;;;;;8.75;7.00;;;4.10;59.80;;;;;;2116348;28;20569;-61
2021/01/31 05:59:44;;;;;;;9.10;7.45;;;4.10;59.80;;;;;;2122671;27;20027;-60
2021/01/31 06:01:08;;;;;;;9.27;7.20;;;4.10;59.80;;;;;;2122430;28;20047;-61
2021/01/31 06:02:31;;;;;;;7.35;6.18;;;4.10;59.80;;;;;;2121679;28;20027;-61
2021/01/31 06:04:13;;;;;;;8.82;6.95;;;4.00;59.70;;;;;;2119359;28;20035;-60
2021/01/31 06:05:35;;;;;;;7.63;6.80;;;4.00;59.80;;;;;;2118840;28;20131;-60
2021/01/31 06:07:11;;;;;;;7.80;6.85;;;4.00;59.70;;;;;;2121144;27;20027;-61
2021/01/31 06:08:33;;;;;;;9.52;7.28;;;4.00;59.90;;;;;;2118308;28;20039;-61
2021/01/31 06:09:54;;;;;;;8.32;7.43;;;4.00;59.80;;;;;;2122352;28;20023;-61
2021/01/31 06:11:28;;;;;;;9.30;8.05;;;4.00;59.70;;;;;;2116742;28;20035;-61
2021/01/31 06:12:50;;;;;;;7.28;6.57;;;4.00;59.80;;;;;;2122603;27;20023;-60
2021/01/31 06:14:14;;;;;;;8.55;7.25;;;4.00;59.70;;;;;;2119172;27;20024;-61
2021/01/31 06:15:45;;;;;;;8.70;7.47;;;4.00;59.80;;;;;;2121520;27;20031;-61
2021/01/31 06:17:14;;;;;;;8.35;6.88;;;4.00;59.80;;;;;;2117055;27;20537;-61
2021/01/31 06:18:44;;;;;;;8.15;7.35;;;4.00;59.80;;;;;;2123687;27;20076;-61
2021/01/31 06:20:24;;;;;;;7.25;6.47;;;4.00;59.90;;;;;;2117492;27;20389;-61
2021/01/31 06:21:46;;;;;;;7.90;7.15;;;4.00;59.90;;;;;;2123497;27;20042;-61
2021/01/31 06:23:31;;;;;;;7.80;7.00;;;4.00;59.80;;;;;;2116785;27;20032;-59
2021/01/31 06:24:54;;;;;;;8.98;7.57;;;4.00;59.80;;;;;;2122312;27;20531;-61
2021/01/31 06:26:28;;;;;;;7.93;7.10;;;4.00;59.70;;;;;;2118235;27;20071;-61
2021/01/31 06:27:49;;;;;;;7.50;6.63;;;4.00;59.80;;;;;;2123330;27;20130;-61
2021/01/31 06:29:36;;;;;;;7.95;7.07;;;3.90;59.70;;;;;;2117673;27;20069;-60
2021/01/31 06:31:08;;;;;;;7.03;6.32;;;4.00;59.80;;;;;;2122706;27;20500;-61
2021/01/31 06:32:31;;;;;;;8.40;6.90;;;3.90;59.70;;;;;;2119785;27;20042;-61
2021/01/31 06:33:52;;;;;;;8.55;7.32;;;3.90;59.70;;;;;;2123810;27;20497;-61
2021/01/31 06:35:16;;;;;;;8.73;7.63;;;3.90;59.70;;;;;;2117148;27;20103;-61
2021/01/31 06:37:07;;;;;;;8.45;7.22;;;3.90;59.80;;;;;;2126204;27;20053;-61
2021/01/31 06:38:56;;;;;;;7.55;6.53;;;3.90;59.90;;;;;;2119099;27;20041;-61
2021/01/31 06:40:32;;;;;;;8.05;6.90;;;3.90;59.80;;;;;;2116081;27;20024;-61
2021/01/31 06:41:59;;;;;;;7.55;6.72;;;3.90;59.70;;;;;;2120816;27;20096;-61
2021/01/31 06:43:34;;;;;;;9.20;7.10;;;3.90;59.70;;;;;;2118481;27;20054;-61
2021/01/31 06:45:10;;;;;;;8.63;6.95;;;3.90;59.70;;;;;;2126777;27;20054;-60
2021/01/31 06:47:08;;;;;;;6.97;6.28;;;3.90;59.80;;;;;;2127162;27;20038;-61
2021/01/31 06:48:46;;;;;;;8.32;6.88;;;3.80;59.80;;;;;;2118826;27;20034;-61
2021/01/31 06:50:29;;;;;;;7.45;6.68;;;3.90;59.70;;;;;;2114628;27;20077;-61
2021/01/31 06:52:21;;;;;;;8.20;7.32;;;3.80;59.70;;;;;;2130015;27;20030;-59
2021/01/31 06:54:09;;;;;;;8.18;7.18;;;3.80;59.80;;;;;;2120665;27;20362;-61
2021/01/31 06:55:49;;;;;;;8.23;7.25;;;3.80;59.70;;;;;;2121230;27;20389;-59
2021/01/31 06:57:20;;;;;;;9.00;7.15;;;3.80;59.80;;;;;;2117132;27;20093;-60
2021/01/31 06:59:02;;;;;;;7.60;6.85;;;3.80;59.70;;;;;;2124109;27;20091;-61
2021/01/31 07:00:39;;;;;;;7.70;6.90;;;3.80;59.80;;;;;;2119003;27;20114;-59
2021/01/31 07:02:31;;;;;;;9.93;7.43;;;3.80;59.90;;;;;;2131458;27;20054;-59
2021/01/31 07:04:31;;;;;;;7.28;6.50;;;3.80;60.00;;;;;;2122028;27;20040;-61
2021/01/31 07:06:01;;;;;;;9.05;7.30;;;3.80;60.00;;;;;;2128790;27;20029;-60
2021/01/31 07:07:31;;;;;;;9.10;7.35;;;3.80;59.80;;;;;;2119247;27;20085;-61
2021/01/31 07:09:16;;;;;;;8.18;7.30;;;3.80;59.80;;;;;;2115459;28;20031;-61
2021/01/31 07:11:21;;;;;;;8.63;6.82;;;3.70;59.80;;;;;;2120144;27;20489;-61
2021/01/31 07:13:20;;;;;;;7.07;6.38;;;3.80;59.90;;;;;;2096058;28;20028;-61
2021/01/31 07:15:06;;;;;;;7.47;6.75;;;3.70;59.80;;;;;;2095284;28;20052;-61
2021/01/31 07:16:32;;;;;;;7.93;6.75;;;3.70;59.80;;;;;;2089501;28;20093;-61
2021/01/31 07:18:09;;;;;;;8.60;7.43;;;3.70;59.70;;;;;;2111692;27;20396;-61
2021/01/31 07:19:41;;;;;;;9.70;7.78;;;3.70;59.70;;;;;;2118897;27;20458;-61
2021/01/31 07:21:14;;;;;;;8.07;7.00;;;3.70;59.80;;;;;;2115696;27;20027;-61
2021/01/31 07:22:47;;;;;;;8.98;7.35;;;3.70;59.90;;;;;;2120435;27;20020;-61
2021/01/31 07:24:31;;;;;;;8.75;7.35;;;3.70;59.90;;;;;;2117225;28;20113;-61
2021/01/31 07:26:11;;;;;;;7.78;6.72;;;3.70;59.90;;;;;;2122405;27;20039;-60
2021/01/31 07:27:44;;;;;;;7.50;6.70;;;3.70;59.90;;;;;;2122725;27;20019;-59
2021/01/31 07:29:11;;;;;;;7.82;7.00;;;3.70;59.90;;;;;;2115305;27;20032;-61
2021/01/31 07:30:36;;;;;;;8.25;6.72;;;3.70;59.90;;;;;;2118421;27;20110;-59
2021/01/31 07:32:00;;;;;;;8.13;7.22;;;3.70;59.90;;;;;;2122722;27;20074;-61
2021/01/31 07:33:30;;;;;;;7.97;6.97;;;3.60;59.90;;;;;;2117955;27;20110;-61
2021/01/31 07:35:12;;;;;;;8.93;7.28;;;3.60;59.90;;;;;;2122086;27;20020;-61
2021/01/31 07:36:40;;;;;;;7.47;6.68;;;3.60;60.00;;;;;;2122504;27;20034;-61
2021/01/31 07:38:11;;;;;;;8.02;7.20;;;3.60;59.90;;;;;;2123520;27;20086;-59
2021/01/31 07:39:57;;;;;;;8.35;6.80;;;3.60;60.00;;;;;;2119861;27;20029;-60
2021/01/31 07:41:18;;;;;;;8.00;6.97;;;3.70;60.20;;;;;;2117712;27;20104;-59
2021/01/31 07:42:42;;;;;;;7.60;6.78;;;3.70;60.20;;;;;;2122296;27;20019;-61
2021/01/31 07:44:07;;;;;;;9.65;8.00;;;3.70;60.20;;;;;;2117250;27;20056;-62
2021/01/31 07:45:29;;;;;;;9.85;7.28;;;3.70;60.20;;;;;;2118222;27;20568;-61